This is the latest recevied weather packets stored in our database for station/object SQ5TM-1. If no packets are shown the sender has not sent any weather packets the latest 10 day(s).
| Time | Temp. | Humidity | Pressure | Rain* | Wind** | Luminosity | Snow |
|---|---|---|---|---|---|---|---|
| 1777643647 | 30° C | 28% | 1012 hPa | - | - | 0 W/m² | - |
| 1777642723 | 30° C | 28% | 1012 hPa | - | - | 0 W/m² | - |
| 1777641798 | 27.22° C | 31% | 1012 hPa | - | - | 0 W/m² | - |
| 1777640874 | 27.22° C | 30% | 1012 hPa | - | - | 0 W/m² | - |
| 1777639950 | 26.11° C | 31% | 1012 hPa | - | - | 0 W/m² | - |
| 1777639026 | 28.33° C | 30% | 1013 hPa | - | - | 0 W/m² | - |
| 1777638102 | 28.33° C | 29% | 1013 hPa | - | - | 0 W/m² | - |
| 1777637177 | 29.44° C | 28% | 1013 hPa | - | - | 0 W/m² | - |
| 1777636253 | 24.44° C | 33% | 1013 hPa | - | - | 0 W/m² | - |
| 1777635328 | 26.11° C | 31% | 1013 hPa | - | - | 0 W/m² | - |
| 1777634404 | 25.56° C | 32% | 1013 hPa | - | - | 0 W/m² | - |
| 1777633480 | 22.22° C | 35% | 1013 hPa | - | - | 0 W/m² | - |
| 1777632556 | 25.56° C | 32% | 1013 hPa | - | - | 0 W/m² | - |
| 1777631631 | 21.67° C | 36% | 1013 hPa | - | - | 0 W/m² | - |
| 1777630707 | 18.33° C | 40% | 1013 hPa | - | - | 0 W/m² | - |
| 1777629783 | 18.89° C | 40% | 1013 hPa | - | - | 0 W/m² | - |
| 1777628859 | 17.78° C | 42% | 1013 hPa | - | - | 0 W/m² | - |
| 1777627934 | 17.22° C | 42% | 1013 hPa | - | - | 0 W/m² | - |
| 1777627010 | 17.22° C | 42% | 1013 hPa | - | - | 0 W/m² | - |
| 1777626086 | 16.67° C | 42% | 1014 hPa | - | - | 0 W/m² | - |
| 1777625161 | 16.11° C | 43% | 1013 hPa | - | - | 0 W/m² | - |
| 1777624236 | 15.56° C | 43% | 1014 hPa | - | - | 0 W/m² | - |
| 1777623312 | 15° C | 43% | 1013 hPa | - | - | 0 W/m² | - |
| 1777622388 | 15° C | 44% | 1014 hPa | - | - | 0 W/m² | - |
| 1777621463 | 14.44° C | 44% | 1013 hPa | - | - | 0 W/m² | - |
* Rain since midnight (hover to see other rain measurements)
** Current wind speed in m/s (hover to see current wind gust speed)